Time;durP1;ratioP1;P1;durP2;ratioP2;P2;SDS_P1;SDS_P2;PMS_P1;PMS_P2;Temp;Humidity;BMP_temperature;BMP_pressure;BME280_temperature;BME280_humidity;BME280_pressure;Samples;Min_cycle;Max_cycle;Signal;HPM_P1;HPM_P2
2023/06/29 00:02:09;;;;;;;9.15;8.25;;;23.40;75.10;;;;;;4809924;29;20525;-84
2023/06/29 00:04:35;;;;;;;9.85;8.85;;;23.40;74.90;;;;;;4810202;29;20302;-85
2023/06/29 00:07:02;;;;;;;9.30;8.40;;;23.40;75.00;;;;;;4810612;29;20227;-85
2023/06/29 00:09:33;;;;;;;9.43;8.52;;;23.40;75.00;;;;;;4795919;29;20200;-84
2023/06/29 00:11:59;;;;;;;9.35;8.45;;;23.40;74.90;;;;;;4809837;29;20229;-84
2023/06/29 00:14:25;;;;;;;9.48;8.48;;;23.40;74.90;;;;;;4796281;29;20179;-84
2023/06/29 00:16:51;;;;;;;9.50;8.60;;;23.40;74.70;;;;;;4795677;29;20218;-84
2023/06/29 00:19:20;;;;;;;10.00;9.00;;;23.40;74.90;;;;;;4810685;29;20203;-84
2023/06/29 00:21:48;;;;;;;9.30;8.40;;;23.40;74.90;;;;;;4795820;29;20223;-84
2023/06/29 00:24:14;;;;;;;9.43;8.52;;;23.40;75.50;;;;;;4812075;29;20214;-84
2023/06/29 00:26:44;;;;;;;10.98;9.07;;;23.40;74.90;;;;;;4794922;29;20171;-85
2023/06/29 00:29:10;;;;;;;9.65;8.65;;;23.40;74.70;;;;;;4779449;29;20229;-85
2023/06/29 00:31:38;;;;;;;10.88;8.73;;;23.40;75.00;;;;;;4810699;29;20189;-85
2023/06/29 00:34:04;;;;;;;9.80;8.80;;;23.40;74.90;;;;;;4795288;29;20179;-85
2023/06/29 00:36:29;;;;;;;9.60;8.70;;;23.40;74.90;;;;;;4810279;29;20173;-85
2023/06/29 00:38:59;;;;;;;9.40;8.50;;;23.40;75.00;;;;;;4811422;29;20171;-84
2023/06/29 00:41:29;;;;;;;9.88;8.88;;;23.40;74.90;;;;;;4794691;29;20191;-84
2023/06/29 00:43:55;;;;;;;8.77;7.97;;;23.40;74.70;;;;;;4809135;29;20230;-84
2023/06/29 00:46:21;;;;;;;8.95;8.05;;;23.40;74.70;;;;;;4795186;29;20175;-85
2023/06/29 00:48:47;;;;;;;9.40;8.43;;;23.40;74.80;;;;;;4795233;29;20231;-85
2023/06/29 00:51:14;;;;;;;9.45;8.55;;;23.40;74.70;;;;;;4794960;29;20179;-85
2023/06/29 00:53:40;;;;;;;9.52;8.63;;;23.40;74.90;;;;;;4809890;29;20525;-85
2023/06/29 00:56:10;;;;;;;9.27;8.38;;;23.40;74.90;;;;;;4795693;29;20552;-85
2023/06/29 00:58:36;;;;;;;9.43;8.52;;;23.40;74.90;;;;;;4794207;29;20289;-85
2023/06/29 01:01:02;;;;;;;9.15;8.25;;;23.30;75.00;;;;;;4795417;29;20651;-84
2023/06/29 01:03:30;;;;;;;9.13;8.23;;;23.30;74.80;;;;;;4811193;29;20195;-84
2023/06/29 01:05:57;;;;;;;8.93;8.07;;;23.30;74.80;;;;;;4795233;29;20179;-84
2023/06/29 01:08:29;;;;;;;9.38;8.48;;;23.30;74.80;;;;;;4810860;29;20166;-84
2023/06/29 01:10:55;;;;;;;9.48;8.52;;;23.30;74.90;;;;;;4794669;29;20212;-85
2023/06/29 01:13:21;;;;;;;9.00;8.10;;;23.30;75.00;;;;;;4810315;29;20171;-84
2023/06/29 01:15:51;;;;;;;8.90;8.10;;;23.40;74.80;;;;;;4810045;29;20175;-85
2023/06/29 01:18:21;;;;;;;9.45;8.52;;;23.30;74.90;;;;;;4794268;29;20282;-85
2023/06/29 01:20:49;;;;;;;9.18;8.27;;;23.30;74.90;;;;;;4809290;29;20199;-85
2023/06/29 01:23:19;;;;;;;8.55;7.75;;;23.30;74.80;;;;;;4810158;29;20193;-84
2023/06/29 01:25:50;;;;;;;9.48;8.57;;;23.30;74.90;;;;;;4809869;29;20180;-85
2023/06/29 01:28:16;;;;;;;9.57;8.68;;;23.30;74.90;;;;;;4809229;29;20195;-85
2023/06/29 01:30:49;;;;;;;9.27;8.40;;;23.20;74.50;;;;;;4810970;29;20306;-85
2023/06/29 01:33:18;;;;;;;9.63;8.20;;;23.30;74.70;;;;;;4810165;29;20197;-85
2023/06/29 01:35:44;;;;;;;9.88;8.80;;;23.30;74.80;;;;;;4809821;29;20304;-85
2023/06/29 01:38:25;;;;;;;8.75;7.95;;;23.30;74.60;;;;;;4794597;29;20657;-85
2023/06/29 01:40:52;;;;;;;8.88;7.97;;;23.30;74.70;;;;;;4811407;29;20201;-85
2023/06/29 01:43:21;;;;;;;9.20;8.30;;;23.30;74.70;;;;;;4809347;29;20202;-85
2023/06/29 01:45:47;;;;;;;8.95;8.10;;;23.30;74.80;;;;;;4793571;29;20191;-84
2023/06/29 01:48:13;;;;;;;8.60;7.80;;;23.30;74.80;;;;;;4808671;29;20186;-84
2023/06/29 01:50:43;;;;;;;8.98;8.18;;;23.30;74.90;;;;;;4808953;29;20564;-85
2023/06/29 01:53:13;;;;;;;8.57;7.75;;;23.30;74.90;;;;;;4808418;29;20674;-84
2023/06/29 01:55:39;;;;;;;9.07;8.18;;;23.20;75.00;;;;;;4808643;29;20210;-85
2023/06/29 01:58:10;;;;;;;9.48;8.55;;;23.30;74.90;;;;;;4808620;29;20539;-85
2023/06/29 02:00:36;;;;;;;8.55;7.75;;;23.20;74.90;;;;;;4792990;29;20233;-86
2023/06/29 02:03:06;;;;;;;9.45;8.55;;;23.20;75.00;;;;;;4808558;29;20198;-85
2023/06/29 02:05:32;;;;;;;9.20;8.20;;;23.20;74.90;;;;;;4808263;29;20757;-86
2023/06/29 02:07:57;;;;;;;9.05;8.15;;;23.30;75.00;;;;;;4793878;29;20265;-84
2023/06/29 02:10:27;;;;;;;9.50;8.50;;;23.20;74.90;;;;;;4809168;29;20167;-84
2023/06/29 02:12:57;;;;;;;9.40;8.50;;;23.20;75.00;;;;;;4793004;29;20219;-84
2023/06/29 02:15:23;;;;;;;10.52;9.13;;;23.20;75.00;;;;;;4792966;29;20194;-84
2023/06/29 02:17:52;;;;;;;9.05;8.02;;;23.20;74.90;;;;;;4793976;29;20199;-85
2023/06/29 02:20:19;;;;;;;9.20;8.30;;;23.20;74.90;;;;;;4808048;29;20198;-85
2023/06/29 02:22:45;;;;;;;9.55;8.65;;;23.20;74.80;;;;;;4792845;29;20178;-85
2023/06/29 02:25:11;;;;;;;8.70;7.82;;;23.20;74.70;;;;;;4808345;29;20167;-84
2023/06/29 02:27:37;;;;;;;8.60;7.80;;;23.20;74.70;;;;;;4808705;29;20186;-85
2023/06/29 02:30:03;;;;;;;8.82;7.95;;;23.20;74.80;;;;;;4805584;29;20755;-85
2023/06/29 02:32:29;;;;;;;9.45;8.27;;;23.20;75.00;;;;;;4775189;30;20203;-85
2023/06/29 02:34:55;;;;;;;9.07;8.20;;;23.20;74.90;;;;;;4805366;29;20195;-85
2023/06/29 02:37:21;;;;;;;8.85;8.00;;;23.20;75.00;;;;;;4789795;30;20232;-85
2023/06/29 02:39:47;;;;;;;8.85;8.00;;;23.20;74.80;;;;;;4790799;30;20184;-85
2023/06/29 02:42:13;;;;;;;8.93;8.02;;;23.20;75.00;;;;;;4805400;29;20171;-85
2023/06/29 02:44:43;;;;;;;9.30;8.40;;;23.20;74.90;;;;;;4805225;29;20195;-84
2023/06/29 02:47:09;;;;;;;8.90;8.00;;;23.10;74.90;;;;;;4804442;29;20191;-86
2023/06/29 02:49:38;;;;;;;8.35;7.60;;;23.20;75.00;;;;;;4804981;29;20522;-85
2023/06/29 02:52:05;;;;;;;9.10;8.20;;;23.20;75.00;;;;;;4804800;29;20203;-85
2023/06/29 02:54:31;;;;;;;9.07;8.18;;;23.20;74.80;;;;;;4791303;29;20628;-86
2023/06/29 02:57:00;;;;;;;9.15;8.25;;;23.20;75.00;;;;;;4805389;29;20179;-85
2023/06/29 02:59:26;;;;;;;8.68;7.78;;;23.20;74.70;;;;;;4804774;29;20203;-86
2023/06/29 03:01:56;;;;;;;8.65;7.85;;;23.20;74.70;;;;;;4789477;30;20186;-84
2023/06/29 03:04:22;;;;;;;8.93;8.05;;;23.20;74.80;;;;;;4803957;29;20220;-85
2023/06/29 03:06:48;;;;;;;8.90;8.02;;;23.20;74.70;;;;;;4804749;29;20209;-85
2023/06/29 03:09:14;;;;;;;8.80;7.97;;;23.20;74.80;;;;;;4791167;30;20635;-85
2023/06/29 03:11:40;;;;;;;9.18;8.27;;;23.20;74.80;;;;;;4790004;30;20182;-85
2023/06/29 03:14:06;;;;;;;9.02;8.13;;;23.20;74.90;;;;;;4804961;29;20216;-86
2023/06/29 03:16:36;;;;;;;8.75;7.95;;;23.10;74.70;;;;;;4805040;29;20172;-85
2023/06/29 03:19:02;;;;;;;8.50;7.70;;;23.20;74.90;;;;;;4789224;30;20199;-84
2023/06/29 03:21:28;;;;;;;8.73;7.90;;;23.20;74.90;;;;;;4790689;30;20624;-84
2023/06/29 03:23:54;;;;;;;9.30;8.25;;;23.20;74.90;;;;;;4805229;29;20266;-84
2023/06/29 03:26:20;;;;;;;9.38;8.48;;;23.10;74.80;;;;;;4789678;30;20176;-85
2023/06/29 03:28:46;;;;;;;9.02;8.13;;;23.20;74.80;;;;;;4805513;29;20540;-85
2023/06/29 03:31:12;;;;;;;8.70;7.85;;;23.10;74.70;;;;;;4809089;29;20581;-85
2023/06/29 03:33:38;;;;;;;9.52;8.63;;;23.10;74.90;;;;;;4808814;29;20167;-85
2023/06/29 03:36:05;;;;;;;8.80;7.90;;;23.10;75.00;;;;;;4793991;29;20626;-85
2023/06/29 03:38:36;;;;;;;8.90;8.00;;;23.10;74.90;;;;;;4809538;29;20246;-85
2023/06/29 03:41:05;;;;;;;8.98;8.10;;;23.10;75.00;;;;;;4793128;29;20335;-85
2023/06/29 03:43:31;;;;;;;8.55;7.75;;;23.10;74.80;;;;;;4809117;29;20237;-85
2023/06/29 03:45:59;;;;;;;8.80;7.90;;;23.10;74.80;;;;;;4808805;29;20183;-87
2023/06/29 03:48:29;;;;;;;8.50;7.70;;;23.10;74.90;;;;;;4809263;29;20263;-86
2023/06/29 03:50:56;;;;;;;9.27;8.35;;;23.10;74.60;;;;;;4792297;29;20672;-86
2023/06/29 03:53:22;;;;;;;8.93;7.70;;;23.20;74.90;;;;;;4804624;29;20535;-86
2023/06/29 03:55:48;;;;;;;9.30;8.40;;;23.10;74.70;;;;;;4789527;29;20198;-84
2023/06/29 03:58:15;;;;;;;8.95;8.05;;;23.20;74.90;;;;;;4806063;29;20159;-86
2023/06/29 04:00:41;;;;;;;8.80;8.00;;;23.10;74.80;;;;;;4789458;29;20540;-86
2023/06/29 04:03:08;;;;;;;9.43;8.52;;;23.10;74.80;;;;;;4804468;29;20230;-84
2023/06/29 04:05:35;;;;;;;8.63;7.72;;;23.00;74.70;;;;;;4789793;29;20647;-84
2023/06/29 04:08:04;;;;;;;8.85;8.00;;;23.10;74.60;;;;;;4804515;29;20165;-84
2023/06/29 04:10:31;;;;;;;8.13;7.40;;;23.10;74.60;;;;;;4805644;29;20167;-85
2023/06/29 04:12:56;;;;;;;9.00;8.10;;;23.20;74.70;;;;;;4806764;29;20266;-85
2023/06/29 04:15:22;;;;;;;8.52;7.72;;;23.10;74.40;;;;;;4792887;29;20262;-85
2023/06/29 04:17:48;;;;;;;9.38;8.48;;;23.10;74.50;;;;;;4807971;29;20175;-84
2023/06/29 04:20:14;;;;;;;8.90;8.00;;;23.10;74.50;;;;;;4808879;29;20167;-85
2023/06/29 04:22:40;;;;;;;9.48;8.40;;;23.10;74.50;;;;;;4808715;29;20246;-85
2023/06/29 04:25:06;;;;;;;8.77;7.88;;;23.10;74.70;;;;;;4807804;29;20646;-85
2023/06/29 04:27:34;;;;;;;8.68;7.88;;;23.10;74.50;;;;;;4792581;29;20222;-84
2023/06/29 04:30:00;;;;;;;8.50;7.70;;;23.10;74.50;;;;;;4808546;29;20225;-84
2023/06/29 04:32:26;;;;;;;8.90;8.10;;;23.10;74.60;;;;;;4807499;29;20179;-84
2023/06/29 04:34:52;;;;;;;9.38;8.40;;;23.10;74.80;;;;;;4808856;29;20167;-85
2023/06/29 04:37:18;;;;;;;9.57;8.63;;;23.10;74.80;;;;;;4792415;29;20171;-85
2023/06/29 04:39:45;;;;;;;8.18;7.38;;;23.10;74.50;;;;;;4792363;29;20623;-85
2023/06/29 04:42:13;;;;;;;9.10;8.20;;;23.10;74.70;;;;;;4808473;29;20178;-86
2023/06/29 04:44:40;;;;;;;8.82;7.93;;;23.00;74.60;;;;;;4792641;29;20190;-84
2023/06/29 04:47:06;;;;;;;8.60;7.80;;;23.10;74.50;;;;;;4808504;29;20163;-86
2023/06/29 04:49:36;;;;;;;9.15;8.25;;;23.10;74.50;;;;;;4807264;29;20615;-85
2023/06/29 04:52:04;;;;;;;8.73;7.90;;;23.10;74.60;;;;;;4807496;29;20166;-85
2023/06/29 04:54:30;;;;;;;7.95;7.15;;;23.20;74.30;;;;;;4807154;29;20167;-86
2023/06/29 04:56:56;;;;;;;8.60;7.80;;;23.20;74.20;;;;;;4808280;29;20223;-86
2023/06/29 04:59:24;;;;;;;8.40;7.60;;;23.20;74.20;;;;;;4807182;29;20690;-86
2023/06/29 05:01:50;;;;;;;8.90;8.00;;;23.20;74.20;;;;;;4807004;29;20163;-86
2023/06/29 05:04:16;;;;;;;8.57;7.78;;;23.20;74.20;;;;;;4808067;29;21038;-85
2023/06/29 05:06:43;;;;;;;8.73;7.82;;;23.20;74.10;;;;;;4807148;29;20162;-84
2023/06/29 05:09:09;;;;;;;8.15;7.35;;;23.20;73.80;;;;;;4791842;29;20175;-85
2023/06/29 05:11:35;;;;;;;8.70;7.90;;;23.20;73.80;;;;;;4806946;29;20152;-87
2023/06/29 05:14:05;;;;;;;9.13;8.23;;;23.30;73.50;;;;;;4806807;29;20168;-86
2023/06/29 05:16:31;;;;;;;8.02;7.22;;;23.30;73.40;;;;;;4791003;29;20718;-85
2023/06/29 05:18:57;;;;;;;8.38;7.57;;;23.20;73.40;;;;;;4791617;29;20265;-86
2023/06/29 05:21:23;;;;;;;8.52;7.68;;;23.30;73.40;;;;;;4808047;29;20168;-85
2023/06/29 05:23:49;;;;;;;8.13;7.32;;;23.30;73.50;;;;;;4806946;29;20530;-86
2023/06/29 05:26:15;;;;;;;8.25;7.45;;;23.30;73.50;;;;;;4791560;29;20174;-85
2023/06/29 05:28:41;;;;;;;8.32;7.53;;;23.30;73.40;;;;;;4806356;29;20156;-86
2023/06/29 05:31:07;;;;;;;8.52;7.63;;;23.20;73.40;;;;;;4807646;29;20185;-85
2023/06/29 05:33:33;;;;;;;8.30;7.50;;;23.30;73.30;;;;;;4807774;29;20171;-85
2023/06/29 05:35:59;;;;;;;8.07;7.28;;;23.30;73.00;;;;;;4807523;29;20167;-85
2023/06/29 05:38:25;;;;;;;9.10;8.13;;;23.30;73.30;;;;;;4806534;29;20170;-86
2023/06/29 05:40:51;;;;;;;8.45;7.65;;;23.20;73.90;;;;;;4806538;29;20159;-86
2023/06/29 05:43:17;;;;;;;8.43;7.63;;;23.10;73.90;;;;;;4791269;29;20321;-87
2023/06/29 05:45:43;;;;;;;7.80;7.10;;;23.10;74.00;;;;;;4791658;29;20183;-85
2023/06/29 05:48:09;;;;;;;8.38;7.57;;;23.10;73.80;;;;;;4807650;29;20564;-86
2023/06/29 05:50:35;;;;;;;7.90;7.13;;;23.10;73.60;;;;;;4806206;29;20167;-86
2023/06/29 05:53:01;;;;;;;7.47;6.78;;;23.20;74.20;;;;;;4791392;29;20179;-86
2023/06/29 05:55:27;;;;;;;7.93;7.13;;;23.20;73.50;;;;;;4806059;29;20175;-85
2023/06/29 05:57:53;;;;;;;7.88;7.18;;;23.20;73.30;;;;;;4806079;29;20167;-85
2023/06/29 06:00:19;;;;;;;8.65;7.75;;;23.20;73.30;;;;;;4806001;29;20166;-85
2023/06/29 06:02:45;;;;;;;7.60;6.80;;;23.20;73.30;;;;;;4805908;29;20688;-85
2023/06/29 06:05:11;;;;;;;7.80;7.10;;;23.20;73.30;;;;;;4791494;29;20206;-87
2023/06/29 06:07:37;;;;;;;7.32;6.63;;;23.20;73.20;;;;;;4805971;29;20586;-86
2023/06/29 06:10:03;;;;;;;7.63;6.93;;;23.20;73.00;;;;;;4807011;29;20167;-86
2023/06/29 06:12:34;;;;;;;7.03;6.32;;;23.30;73.10;;;;;;4806131;29;20531;-85
2023/06/29 06:15:05;;;;;;;7.88;6.85;;;23.30;73.20;;;;;;4797255;29;20190;-83
2023/06/29 06:17:31;;;;;;;7.22;6.53;;;23.30;72.90;;;;;;4798708;29;20190;-83
2023/06/29 06:20:04;;;;;;;7.80;7.00;;;23.30;72.70;;;;;;4797548;29;20615;-83
2023/06/29 06:22:30;;;;;;;7.32;6.63;;;23.40;73.00;;;;;;4798463;29;20225;-84
2023/06/29 06:25:00;;;;;;;8.02;7.22;;;23.30;74.00;;;;;;4813170;29;20190;-84
2023/06/29 06:27:26;;;;;;;7.85;7.15;;;23.30;72.80;;;;;;4812394;29;20187;-83
2023/06/29 06:29:52;;;;;;;6.97;6.38;;;23.30;72.80;;;;;;4811907;29;20576;-84
2023/06/29 06:32:24;;;;;;;7.40;6.70;;;23.30;72.80;;;;;;4813036;29;20178;-84
2023/06/29 06:34:51;;;;;;;7.60;6.90;;;23.30;72.80;;;;;;4811133;29;20558;-84
2023/06/29 06:37:17;;;;;;;7.45;6.75;;;23.30;72.80;;;;;;4806609;29;20183;-84
2023/06/29 06:39:43;;;;;;;7.28;6.60;;;23.30;72.80;;;;;;4806934;29;20683;-83
2023/06/29 06:42:09;;;;;;;7.38;6.68;;;23.30;72.70;;;;;;4791983;29;20635;-82
2023/06/29 06:44:37;;;;;;;7.25;6.55;;;23.30;72.70;;;;;;4805457;29;20199;-85
2023/06/29 06:47:03;;;;;;;7.45;6.75;;;23.30;72.70;;;;;;4806893;29;20169;-86
2023/06/29 06:49:33;;;;;;;7.47;6.78;;;23.40;72.70;;;;;;4799702;29;20170;-84
2023/06/29 06:52:02;;;;;;;7.40;6.70;;;23.40;72.60;;;;;;4791685;29;20194;-83
2023/06/29 06:54:28;;;;;;;7.70;7.00;;;23.40;72.40;;;;;;4805890;29;20159;-82
2023/06/29 06:56:54;;;;;;;7.40;6.70;;;23.40;72.30;;;;;;4790418;29;20191;-83
2023/06/29 06:59:20;;;;;;;7.22;6.57;;;23.40;72.10;;;;;;4805602;29;20585;-83
2023/06/29 07:01:45;;;;;;;7.45;6.75;;;23.50;72.10;;;;;;4805672;29;20190;-83
2023/06/29 07:04:12;;;;;;;7.50;6.80;;;23.40;72.10;;;;;;4805398;29;20249;-83
2023/06/29 07:06:38;;;;;;;7.13;6.43;;;23.40;72.20;;;;;;4805494;29;20631;-84
2023/06/29 07:09:04;;;;;;;7.03;6.43;;;23.40;71.90;;;;;;4806419;29;20194;-83
2023/06/29 07:11:30;;;;;;;7.28;6.57;;;23.50;71.70;;;;;;4806473;29;20163;-84
2023/06/29 07:13:56;;;;;;;7.28;6.57;;;23.50;71.70;;;;;;4806542;29;20253;-83
2023/06/29 07:16:24;;;;;;;6.65;6.05;;;23.50;71.60;;;;;;4790411;29;20698;-83
2023/06/29 07:19:08;;;;;;;6.93;6.32;;;23.60;71.50;;;;;;4806524;29;20254;-82
2023/06/29 07:21:34;;;;;;;7.07;6.43;;;23.60;71.50;;;;;;4806359;29;20155;-83
2023/06/29 07:24:00;;;;;;;7.43;6.72;;;23.60;71.40;;;;;;4790006;29;20205;-83
2023/06/29 07:26:26;;;;;;;7.45;6.75;;;23.50;71.40;;;;;;4789779;29;20491;-84
2023/06/29 07:28:52;;;;;;;7.18;6.57;;;23.60;71.60;;;;;;4804832;29;20163;-82
2023/06/29 07:31:21;;;;;;;7.50;6.80;;;23.60;71.40;;;;;;4805129;29;20170;-83
2023/06/29 07:33:47;;;;;;;7.15;6.45;;;23.50;71.20;;;;;;4805268;29;20186;-84
2023/06/29 07:36:13;;;;;;;7.90;7.10;;;23.60;71.20;;;;;;4804913;29;20642;-84
2023/06/29 07:38:39;;;;;;;8.18;7.30;;;23.50;71.00;;;;;;4804939;29;20175;-84
2023/06/29 07:41:05;;;;;;;7.40;6.75;;;23.60;70.80;;;;;;4806285;29;20270;-84
2023/06/29 07:43:31;;;;;;;7.50;6.88;;;23.60;70.70;;;;;;4806059;29;20199;-84
2023/06/29 07:45:57;;;;;;;7.05;6.45;;;23.60;70.70;;;;;;4807124;29;20643;-84
2023/06/29 07:48:29;;;;;;;7.35;6.65;;;23.60;70.70;;;;;;4808465;29;20208;-84
2023/06/29 07:51:07;;;;;;;7.65;6.95;;;23.60;70.80;;;;;;4808675;29;20174;-84
2023/06/29 07:53:34;;;;;;;7.30;6.60;;;23.60;70.60;;;;;;4806711;29;20239;-84
2023/06/29 07:56:00;;;;;;;7.65;6.95;;;23.60;70.70;;;;;;4807784;29;20194;-84
2023/06/29 07:58:27;;;;;;;7.53;6.82;;;23.60;70.90;;;;;;4792906;29;20281;-84
2023/06/29 08:00:57;;;;;;;7.57;6.88;;;23.60;70.90;;;;;;4793752;29;20171;-84
2023/06/29 08:03:26;;;;;;;8.00;7.30;;;23.50;70.80;;;;;;4762694;29;20255;-84
2023/06/29 08:05:55;;;;;;;7.32;6.63;;;23.50;70.60;;;;;;4810991;29;20266;-86
2023/06/29 08:08:21;;;;;;;7.35;6.65;;;23.60;70.80;;;;;;4810146;29;20187;-87
2023/06/29 08:10:51;;;;;;;7.60;6.90;;;23.60;70.40;;;;;;4794116;29;20291;-86
2023/06/29 08:13:18;;;;;;;7.40;6.70;;;23.60;70.40;;;;;;4778516;29;20278;-86
2023/06/29 08:15:44;;;;;;;8.05;7.25;;;23.70;70.30;;;;;;4792253;29;20499;-84
2023/06/29 08:18:09;;;;;;;8.10;7.32;;;23.60;70.00;;;;;;4806937;29;20675;-84
2023/06/29 08:20:35;;;;;;;7.50;6.80;;;23.70;70.40;;;;;;4806939;29;20689;-85
2023/06/29 08:23:01;;;;;;;7.40;6.70;;;23.70;70.00;;;;;;4806904;29;20198;-84
2023/06/29 08:25:27;;;;;;;7.47;6.78;;;23.70;69.80;;;;;;4807650;29;20191;-84
2023/06/29 08:27:53;;;;;;;7.78;7.07;;;23.70;69.80;;;;;;4807747;29;20637;-85
2023/06/29 08:30:19;;;;;;;8.50;7.60;;;23.80;69.80;;;;;;4808890;29;20226;-85
2023/06/29 08:32:49;;;;;;;7.38;6.68;;;23.70;69.80;;;;;;4807935;29;20215;-85
2023/06/29 08:35:15;;;;;;;7.38;6.68;;;23.70;69.80;;;;;;4795580;29;20213;-86
2023/06/29 08:37:41;;;;;;;10.15;6.88;;;23.70;69.60;;;;;;4813919;29;20251;-86
2023/06/29 08:40:08;;;;;;;7.00;6.40;;;23.70;69.40;;;;;;4811582;29;20167;-84
2023/06/29 08:42:39;;;;;;;8.00;7.20;;;23.80;69.30;;;;;;4815098;29;20159;-85
2023/06/29 08:45:06;;;;;;;7.72;7.00;;;23.80;69.40;;;;;;4801264;29;20222;-85
2023/06/29 08:47:34;;;;;;;7.70;6.93;;;23.70;69.50;;;;;;4817582;29;20265;-85
2023/06/29 08:50:00;;;;;;;7.45;6.82;;;23.70;69.80;;;;;;4819564;29;20182;-85
2023/06/29 08:52:26;;;;;;;7.70;7.00;;;23.70;69.60;;;;;;4820793;29;20170;-85
2023/06/29 08:54:56;;;;;;;7.85;7.13;;;23.80;69.60;;;;;;4803578;29;20633;-85
2023/06/29 08:57:23;;;;;;;8.75;6.75;;;23.90;69.40;;;;;;4801417;29;20198;-85
2023/06/29 08:59:53;;;;;;;6.93;6.32;;;23.90;69.50;;;;;;4817130;29;20190;-86
2023/06/29 09:02:24;;;;;;;7.60;6.90;;;23.90;69.50;;;;;;4818438;29;20191;-85
2023/06/29 09:04:55;;;;;;;8.15;7.30;;;23.90;69.40;;;;;;4818216;29;20222;-85
2023/06/29 09:07:28;;;;;;;7.07;6.35;;;23.90;69.20;;;;;;4802815;29;20190;-85
2023/06/29 09:09:58;;;;;;;7.15;6.45;;;24.00;69.20;;;;;;4787316;29;20608;-85
2023/06/29 09:12:24;;;;;;;7.47;6.43;;;24.00;69.30;;;;;;4803299;29;20655;-85
2023/06/29 09:14:57;;;;;;;7.05;6.45;;;23.90;69.20;;;;;;4818909;29;20170;-86
2023/06/29 09:17:23;;;;;;;7.43;6.60;;;23.90;69.10;;;;;;4804022;29;20186;-85
2023/06/29 09:19:54;;;;;;;7.60;6.90;;;23.90;69.10;;;;;;4804309;29;20177;-85
2023/06/29 09:22:22;;;;;;;7.38;6.57;;;23.90;69.40;;;;;;4818733;29;20159;-85
2023/06/29 09:24:56;;;;;;;7.70;7.00;;;23.70;69.50;;;;;;4803271;29;20265;-85
2023/06/29 09:27:27;;;;;;;7.72;6.90;;;23.80;69.50;;;;;;4802681;29;20186;-85
2023/06/29 09:29:53;;;;;;;7.55;6.78;;;23.80;69.60;;;;;;4803040;29;20230;-86
2023/06/29 09:32:19;;;;;;;7.43;6.72;;;23.80;69.60;;;;;;4818192;29;20175;-85
2023/06/29 09:34:51;;;;;;;7.82;6.55;;;23.80;69.50;;;;;;4803922;29;20183;-85
2023/06/29 09:37:21;;;;;;;6.97;6.32;;;23.80;69.50;;;;;;4818491;29;20216;-85
2023/06/29 09:39:58;;;;;;;7.70;6.82;;;23.70;69.40;;;;;;4818051;29;20191;-85
2023/06/29 09:42:29;;;;;;;6.97;6.38;;;23.70;69.40;;;;;;4818947;29;20594;-85
2023/06/29 09:45:01;;;;;;;7.70;6.88;;;23.80;69.40;;;;;;4818728;29;20198;-85
2023/06/29 09:47:27;;;;;;;7.13;6.47;;;23.80;69.50;;;;;;4818807;29;20159;-85
2023/06/29 09:49:53;;;;;;;7.35;6.63;;;23.70;69.60;;;;;;4818675;29;20179;-85
2023/06/29 09:52:19;;;;;;;7.10;6.35;;;23.70;69.70;;;;;;4818237;29;20221;-86
2023/06/29 09:54:51;;;;;;;7.28;6.57;;;23.70;69.50;;;;;;4803396;29;20195;-86
2023/06/29 09:57:21;;;;;;;7.50;6.80;;;23.80;69.40;;;;;;4814665;29;20251;-86
2023/06/29 09:59:50;;;;;;;7.13;6.43;;;23.70;69.30;;;;;;4800386;29;20191;-86
2023/06/29 10:02:17;;;;;;;7.18;6.47;;;23.80;69.00;;;;;;4814790;29;20231;-85
2023/06/29 10:04:43;;;;;;;6.93;6.32;;;23.90;68.90;;;;;;4797936;29;20202;-87
2023/06/29 10:07:13;;;;;;;6.63;6.03;;;23.80;68.60;;;;;;4811742;29;20171;-86
2023/06/29 10:10:02;;;;;;;6.75;6.15;;;23.80;68.40;;;;;;4809444;29;20198;-86
2023/06/29 10:12:28;;;;;;;7.10;6.40;;;23.80;68.30;;;;;;4807523;29;20175;-88
2023/06/29 10:14:57;;;;;;;7.05;6.45;;;23.80;68.20;;;;;;4807547;29;20167;-87
2023/06/29 10:17:25;;;;;;;6.68;6.07;;;23.90;68.00;;;;;;4805827;29;20643;-87
2023/06/29 10:19:52;;;;;;;6.80;6.20;;;23.80;68.60;;;;;;4806522;29;20187;-86
2023/06/29 10:22:17;;;;;;;6.97;5.95;;;23.80;67.70;;;;;;4806253;29;20181;-86
2023/06/29 10:24:57;;;;;;;6.97;6.38;;;23.90;67.50;;;;;;4791594;29;20293;-85
2023/06/29 10:27:27;;;;;;;6.50;5.90;;;24.00;67.20;;;;;;4807606;29;20216;-88
2023/06/29 10:30:15;;;;;;;7.05;6.35;;;24.00;66.60;;;;;;4802755;29;20227;-87
2023/06/29 10:32:41;;;;;;;6.72;6.13;;;24.00;66.90;;;;;;4769220;30;20279;-83
2023/06/29 10:35:09;;;;;;;6.85;6.25;;;23.90;67.20;;;;;;4787989;30;20263;-84
2023/06/29 10:37:40;;;;;;;6.55;5.95;;;23.90;66.80;;;;;;4773026;30;20179;-86
2023/06/29 10:40:26;;;;;;;6.75;6.15;;;23.90;66.40;;;;;;4801922;29;20616;-87
2023/06/29 10:42:58;;;;;;;6.60;6.00;;;24.00;66.50;;;;;;4787712;30;20179;-85
2023/06/29 10:45:30;;;;;;;5.78;5.28;;;24.00;66.20;;;;;;4788186;30;20160;-85
2023/06/29 10:48:02;;;;;;;6.18;5.60;;;24.00;65.90;;;;;;4774787;30;20168;-86
2023/06/29 10:50:36;;;;;;;6.68;6.07;;;24.10;65.70;;;;;;4788622;30;20163;-85
2023/06/29 10:56:36;;;;;;;6.70;6.03;;;24.10;65.70;;;;;;4754723;30;20185;-85
2023/06/29 10:59:13;;;;;;;7.05;6.45;;;24.10;65.60;;;;;;4759168;30;20177;-87
2023/06/29 11:01:47;;;;;;;5.85;5.35;;;24.10;65.40;;;;;;4775468;30;20187;-88
2023/06/29 11:04:17;;;;;;;6.55;5.95;;;24.10;65.20;;;;;;4772120;30;20317;-86
2023/06/29 11:06:43;;;;;;;6.00;5.50;;;24.10;65.00;;;;;;4750699;30;20215;-86
2023/06/29 11:09:13;;;;;;;6.00;5.50;;;24.00;65.00;;;;;;4750584;30;20669;-85
2023/06/29 11:11:43;;;;;;;6.40;5.80;;;24.00;64.70;;;;;;4751547;30;20677;-83
2023/06/29 11:14:11;;;;;;;6.78;6.10;;;24.00;64.50;;;;;;4749913;30;20252;-84
2023/06/29 11:16:39;;;;;;;6.35;5.75;;;24.00;64.60;;;;;;4750353;30;20728;-85
2023/06/29 11:19:05;;;;;;;6.50;5.90;;;24.00;64.70;;;;;;4750320;30;20220;-82
2023/06/29 11:21:31;;;;;;;5.65;5.15;;;24.00;64.70;;;;;;4749491;30;20192;-86
2023/06/29 11:24:01;;;;;;;6.40;5.80;;;24.10;64.50;;;;;;4750511;30;20321;-84
2023/06/29 11:26:28;;;;;;;5.78;5.28;;;24.00;64.50;;;;;;4735940;30;20193;-85
2023/06/29 11:28:54;;;;;;;6.28;5.68;;;24.00;64.60;;;;;;4750762;30;20165;-84
2023/06/29 11:31:20;;;;;;;6.30;5.70;;;24.00;64.50;;;;;;4750497;30;20225;-85
2023/06/29 11:33:49;;;;;;;6.22;5.65;;;24.00;64.20;;;;;;4786117;30;20187;-85
2023/06/29 11:36:15;;;;;;;6.18;5.57;;;24.10;64.00;;;;;;4786978;30;20638;-85
2023/06/29 11:38:41;;;;;;;6.00;5.47;;;24.10;64.00;;;;;;4802164;29;20191;-85
2023/06/29 11:41:07;;;;;;;5.95;5.40;;;24.10;63.90;;;;;;4802610;29;20647;-85
2023/06/29 11:43:33;;;;;;;6.13;5.63;;;24.10;63.60;;;;;;4802142;29;20207;-85
2023/06/29 11:45:59;;;;;;;5.80;5.30;;;24.20;63.60;;;;;;4787206;30;20175;-86
2023/06/29 11:48:29;;;;;;;5.82;5.32;;;24.10;63.40;;;;;;4801714;29;20171;-88
2023/06/29 11:50:59;;;;;;;5.90;5.30;;;24.10;63.40;;;;;;4786791;30;20263;-87
2023/06/29 11:53:28;;;;;;;5.85;5.35;;;24.20;63.20;;;;;;4786581;30;20176;-86
2023/06/29 11:55:54;;;;;;;6.47;5.88;;;24.20;63.10;;;;;;4801303;29;20203;-85
2023/06/29 11:58:21;;;;;;;5.68;5.18;;;24.20;63.00;;;;;;4786598;30;20183;-88
2023/06/29 12:00:53;;;;;;;5.97;5.38;;;24.20;62.80;;;;;;4787082;30;20175;-87
2023/06/29 12:03:19;;;;;;;5.78;5.28;;;24.20;62.70;;;;;;4801633;29;20214;-88
2023/06/29 12:05:46;;;;;;;5.90;5.40;;;24.30;62.60;;;;;;4801556;29;20164;-88
2023/06/29 12:08:14;;;;;;;6.30;5.72;;;24.30;62.40;;;;;;4801759;29;20156;-87
2023/06/29 12:10:40;;;;;;;5.65;5.15;;;24.30;62.50;;;;;;4805876;29;20171;-86
2023/06/29 12:13:12;;;;;;;5.90;5.40;;;24.30;62.50;;;;;;4788604;30;20180;-87
2023/06/29 12:15:44;;;;;;;5.93;5.43;;;24.30;62.50;;;;;;4802301;29;20230;-89
2023/06/29 12:18:12;;;;;;;6.15;5.65;;;24.30;62.30;;;;;;4802280;29;20217;-86
2023/06/29 12:20:39;;;;;;;5.95;5.45;;;24.40;62.10;;;;;;4787342;30;20240;-86
2023/06/29 12:23:05;;;;;;;5.70;5.20;;;24.40;61.60;;;;;;4802342;29;20156;-86
2023/06/29 12:25:31;;;;;;;6.28;5.40;;;24.40;61.00;;;;;;4802893;29;20636;-88
2023/06/29 12:28:04;;;;;;;6.30;5.70;;;24.40;61.00;;;;;;4802606;29;20186;-87
2023/06/29 12:30:30;;;;;;;6.15;5.55;;;24.50;61.00;;;;;;4789031;29;20234;-87
2023/06/29 12:32:55;;;;;;;5.78;5.28;;;24.40;60.70;;;;;;4791494;29;20175;-88
2023/06/29 12:35:21;;;;;;;5.97;5.47;;;24.50;60.80;;;;;;4793957;29;20186;-88
2023/06/29 12:37:48;;;;;;;6.15;5.65;;;24.50;60.50;;;;;;4809970;29;20199;-88
2023/06/29 12:40:15;;;;;;;5.70;4.93;;;24.50;60.50;;;;;;4794180;29;20257;-85
2023/06/29 12:42:41;;;;;;;6.78;5.50;;;24.50;60.70;;;;;;4809543;29;20246;-86
2023/06/29 12:45:12;;;;;;;9.00;5.75;;;24.50;60.40;;;;;;4794340;29;20202;-86
2023/06/29 12:47:41;;;;;;;9.25;5.97;;;24.50;60.50;;;;;;4761402;30;20219;-87
2023/06/29 12:50:12;;;;;;;9.82;5.45;;;24.50;60.20;;;;;;4790897;30;20647;-87
2023/06/29 12:52:41;;;;;;;12.10;5.47;;;24.50;59.90;;;;;;4760044;30;20213;-87